Pajala Airport

ESUP · Norrbotten, Schweden

METAR-Geschichte ESUP · Pajala Airport

Unten siehst du die METARs der letzten paar Tage. Wähle ein Jahr, um ältere METARs ab dem Jahr 2007 zu durchsuchen.

21. Juli 2024

Uhrzeit Code Wetter Temp. Sichtweite Wolkendecke Wind METAR/SPECI
01:50
V
12 °C 10 km+ - 360° 360° 0 kt METAR ESUP 202350Z AUTO 00000KT 9999 NCD 12/12 Q1017
01:20
V
12 °C 9 km - 360° 360° 0 kt METAR ESUP 202320Z AUTO 00000KT 9000 NCD 12/12 Q1017
00:50
V
13 °C 10 km+ - 360° 360° 0 kt METAR ESUP 202250Z AUTO 00000KT 9999 NCD 13/13 Q1017
00:20
V
13 °C 10 km+ - Var Var 1 kt METAR ESUP 202220Z AUTO VRB01KT 9999 NCD 13/13 Q1017

20. Juli 2024

Uhrzeit Code Wetter Temp. Sichtweite Wolkendecke Wind METAR/SPECI
23:50
V
14 °C 10 km+ - 360° 360° 0 kt METAR ESUP 202150Z AUTO 00000KT 9999 // NCD 14/14 Q1017
23:20
V
15 °C 10 km+ - 360° 360° 0 kt METAR ESUP 202120Z AUTO 00000KT 9999 NCD 15/15 Q1017
22:50
V
16 °C 10 km+ - 360° 360° 0 kt METAR ESUP 202050Z AUTO 00000KT 9999 // NCD 16/15 Q1016
22:20
V
17 °C 10 km+ - 360° 360° 0 kt METAR ESUP 202020Z AUTO 00000KT 9999 NCD 17/16 Q1016
21:50
V
19 °C 10 km+ - 200° 200° 2 kt METAR ESUP 201950Z AUTO 20002KT 9999 NCD 19/15 Q1016
21:20
V
21 °C 10 km+ - 140° 140° 3 kt METAR ESUP 201920Z AUTO 14003KT 9999 NCD 21/13 Q1016
20:50
V
22 °C 10 km+ - 200° 200° 3 kt METAR ESUP 201850Z AUTO 20003KT 9999 NCD 22/14 Q1016
20:20
V
23 °C 10 km+ - 200° 200° 3 kt METAR ESUP 201820Z AUTO 20003KT 9999 // NCD 23/12 Q1016
19:50
V
23 °C 10 km+ - Var Var 2 kt METAR ESUP 201750Z AUTO VRB02KT 9999 NCD 23/13 Q1016
19:20
V
23 °C 10 km+ - 360° 360° 0 kt METAR ESUP 201720Z AUTO 00000KT 9999 NCD 23/12 Q1016
18:50
V
22 °C 10 km+ - 150° 150° 4 kt METAR ESUP 201650Z AUTO 15004KT 9999 NCD 22/14 Q1016
18:20
V
23 °C 10 km+ - 180° 180° 3 kt METAR ESUP 201620Z AUTO 18003KT 130V230 9999 NCD 23/14 Q1016
17:50
V
24 °C 10 km+ - Var Var 3 kt METAR ESUP 201550Z AUTO VRB03KT 9999 // NCD 24/14 Q1016
17:20
V
23 °C 10 km+ - 150° 150° 6 kt METAR ESUP 201520Z AUTO 15006KT 120V200 9999 FEW086/// 23/13 Q1016
16:50
V
24 °C 10 km+ 6.700 ft 130° 130° 5 kt METAR ESUP 201450Z AUTO 13005KT 090V170 9999 SCT044/// BKN067/// 24/14 Q1016
16:20
V
23 °C 10 km+ 6.500 ft 100° 100° 5 kt METAR ESUP 201420Z AUTO 10005KT 060V150 9999 SCT042/// BKN065/// 23/13 Q1016
15:50
V
23 °C 10 km+ - 180° 180° 4 kt METAR ESUP 201350Z AUTO 18004KT 100V250 9999 NCD 23/15 Q1016
15:20
V
23 °C 10 km+ - Var Var 4 kt METAR ESUP 201320Z AUTO VRB04KT 9999 // FEW038/// 23/14 Q1016
14:50
V
23 °C 10 km+ - 120° 120° 6 kt METAR ESUP 201250Z AUTO 12006KT 080V160 9999 FEW036/// 23/14 Q1016
14:20
V
22 °C 10 km+ - 140° 140° 7 kt METAR ESUP 201220Z AUTO 14007KT 070V170 9999 SCT037/// 22/15 Q1016
13:50
V
23 °C 10 km+ - 070° 070° 3 kt METAR ESUP 201150Z AUTO 07003KT 020V120 9999 FEW041/// SCT066/// 23/14 Q1016 RERA
13:20
V
21 °C 10 km+ 9.600 ft 060° 060° 3 kt METAR ESUP 201120Z AUTO 06003KT 030V100 9999 FEW065/// BKN096/// 21/16 Q1016
12:50
V
21 °C 10 km+ 6.900 ft Var Var 2 kt METAR ESUP 201050Z AUTO VRB02KT 9999 // FEW037/// SCT054/// BKN069/// 21/16 Q1016
12:20
M
21 °C 10 km+ 3.000 ft 110° 110° 6 kt METAR ESUP 201020Z AUTO 11006KT 070V140 9999 SCT026/// BKN030/// 21/16 Q1016
11:50
M
21 °C 10 km+ 2.700 ft Var Var 2 kt METAR ESUP 200950Z AUTO VRB02KT 9999 // BKN027/// 21/15 Q1016
11:20
M
21 °C 10 km+ 3.000 ft 090° 090° 4 - 14 kt METAR ESUP 200920Z AUTO 09004G14KT 030V140 9999 SCT023/// BKN030/// BKN039/// 21/15 Q1016
10:50
V
22 °C 10 km+ 3.300 ft 110° 110° 5 kt METAR ESUP 200850Z AUTO 11005KT 030V160 9999 FEW022/// SCT025/// BKN033/// 22/16 Q1016
10:20
V
20 °C 10 km+ - 030° 030° 4 kt METAR ESUP 200820Z AUTO 03004KT 310V080 9999 SCT027/// 20/16 Q1016
09:50
M
20 °C 10 km+ 2.100 ft Var Var 3 kt METAR ESUP 200750Z AUTO VRB03KT 9999 FEW015/// BKN021/// BKN026/// 20/16 Q1016
09:20
V
19 °C 10 km+ - Var Var 3 kt METAR ESUP 200720Z AUTO VRB03KT 9999 // SCT017/// 19/17 Q1016
08:50
V
19 °C 10 km+ - 060° 060° 3 kt METAR ESUP 200650Z AUTO 06003KT 020V140 9999 FEW016/// SCT084/// 19/16 Q1016
08:20
V
19 °C 10 km+ - 080° 080° 4 kt METAR ESUP 200620Z AUTO 08004KT 040V150 9999 FEW110/// 19/16 Q1016
07:50
V
18 °C 10 km+ - 080° 080° 4 kt METAR ESUP 200550Z AUTO 08004KT 040V130 9999 FEW012/// SCT098/// 18/16 Q1016
07:20
V
19 °C 10 km+ 9.800 ft 080° 080° 6 kt METAR ESUP 200520Z AUTO 08006KT 050V150 9999 FEW007/// SCT012/// OVC098/// 19/16 Q1015
06:50
V
17 °C 10 km+ 9.400 ft 050° 050° 3 kt METAR ESUP 200450Z AUTO 05003KT 360V090 9999 // OVC094/// 17/17 Q1015
06:20
V
16 °C 10 km+ 9.500 ft Var Var 3 kt METAR ESUP 200420Z AUTO VRB03KT 9999 OVC095/// 16/16 Q1015
05:50
V
16 °C 10 km+ 9.400 ft Var Var 3 kt METAR ESUP 200350Z AUTO VRB03KT 9999 // OVC094/// 16/16 Q1015
05:20
V
16 °C 10 km+ 8.900 ft Var Var 2 kt METAR ESUP 200320Z AUTO VRB02KT 9999 OVC089/// 16/16 Q1015
04:50
V
16 °C 10 km+ 8.800 ft 320° 320° 2 kt METAR ESUP 200250Z AUTO 32002KT 9999 FEW076/// OVC088/// 16/16 Q1015
04:20
V
16 °C 10 km+ 11.000 ft 360° 360° 0 kt METAR ESUP 200220Z AUTO 00000KT 9999 SCT086/// OVC110/// 16/16 Q1015
03:50
V
16 °C 10 km+ 8.500 ft Var Var 2 kt METAR ESUP 200150Z AUTO VRB02KT 9999 BKN085/// OVC100/// 16/16 Q1015
03:20
V
15 °C 10 km+ 10.000 ft 360° 360° 0 kt METAR ESUP 200120Z AUTO 00000KT 9999 FEW073/// OVC100/// 15/15 Q1015
02:50
V
15 °C 10 km+ 10.000 ft 020° 020° 2 kt METAR ESUP 200050Z AUTO 02002KT 9999 FEW056/// OVC100/// 15/15 Q1015
02:20
V
16 °C 10 km+ 10.000 ft Var Var 1 kt METAR ESUP 200020Z AUTO VRB01KT 9999 // OVC100/// 16/16 Q1015
01:50
V
16 °C 10 km+ 9.800 ft Var Var 1 kt METAR ESUP 192350Z AUTO VRB01KT 9999 OVC098/// 16/16 Q1015
01:20
V
16 °C 10 km+ 9.500 ft Var Var 2 kt METAR ESUP 192320Z AUTO VRB02KT 9999 OVC095/// 16/16 Q1015
00:50
V
16 °C 10 km+ 9.200 ft 030° 030° 4 kt METAR ESUP 192250Z AUTO 03004KT 360V060 9999 OVC092/// 16/16 Q1015
00:20
V
16 °C 10 km+ 8.500 ft 010° 010° 3 kt METAR ESUP 192220Z AUTO 01003KT 9999 OVC085/// 16/16 Q1015

19. Juli 2024

Uhrzeit Code Wetter Temp. Sichtweite Wolkendecke Wind METAR/SPECI
23:50
V
16 °C 10 km+ 8.700 ft 020° 020° 3 kt METAR ESUP 192150Z AUTO 02003KT 9999 // OVC087/// 16/16 Q1015
23:20
V
16 °C 10 km+ 8.600 ft 040° 040° 3 kt METAR ESUP 192120Z AUTO 04003KT 9999 OVC086/// 16/16 Q1014
22:50
V
16 °C 10 km+ 11.000 ft 030° 030° 3 kt METAR ESUP 192050Z AUTO 03003KT 9999 OVC110/// 16/16 Q1014
22:20
V
16 °C 10 km+ 11.000 ft 020° 020° 4 kt METAR ESUP 192020Z AUTO 02004KT 350V050 9999 SCT098/// OVC110/// 16/16 Q1014
21:50
V
16 °C 10 km+ 10.000 ft Var Var 3 kt METAR ESUP 191950Z AUTO VRB03KT 9999 OVC100/// 16/16 Q1014
21:20
V
16 °C 10 km+ 10.000 ft 050° 050° 3 kt METAR ESUP 191920Z AUTO 05003KT 9999 FEW077/// OVC100/// 16/16 Q1014
20:50
V
16 °C 10 km+ 12.000 ft 120° 120° 3 kt METAR ESUP 191850Z AUTO 12003KT 9999 SCT085/// OVC120/// 16/16 Q1014
20:20
V
16 °C 10 km+ 9.200 ft 360° 360° 0 kt METAR ESUP 191820Z AUTO 00000KT 9999 // BKN092/// BKN130/// 16/16 Q1014
19:50
V
16 °C 10 km+ 9.300 ft 360° 360° 0 kt METAR ESUP 191750Z AUTO 00000KT 9999 SCT077/// BKN093/// OVC170/// 16/16 Q1014 RERA
19:20
V
16 °C 10 km+ 8.200 ft Var Var 2 kt METAR ESUP 191720Z AUTO VRB02KT 9999 BKN082/// BKN160/// 16/16 Q1014
18:50
V
16 °C 8 km 8.500 ft 360° 360° 4 kt METAR ESUP 191650Z AUTO 36004KT 330V030 8000 -RA FEW022/// SCT049/// OVC085/// 16/16 Q1014 RESHRA
18:20
V
17 °C 10 km+ 3.400 ft Var Var 4 kt METAR ESUP 191620Z AUTO VRB04KT 9999 +RA FEW016/// SCT024/// BKN034/// 17/17 Q1014 RESHRA RERA
17:50
V
20 °C 10 km+ 10.000 ft 360° 360° 0 kt METAR ESUP 191550Z AUTO 00000KT 9999 // FEW053/// BKN100/// 20/17 Q1013
17:20
V
20 °C 10 km+ - 320° 320° 3 kt METAR ESUP 191520Z AUTO 32003KT 280V350 9999 FEW018/// SCT100/// 20/19 Q1013
16:50
V
21 °C 10 km+ - 300° 300° 5 kt METAR ESUP 191450Z AUTO 30005KT 9999 ///////// 21/18 Q1013
16:20
V
20 °C 10 km+ - 320° 320° 4 kt METAR ESUP 191420Z AUTO 32004KT 280V350 9999 ///////// 20/18 Q1013
15:50
V
19 °C 10 km+ 8.900 ft Var Var 2 kt METAR ESUP 191350Z AUTO VRB02KT 9999 BKN089/// 19/18 Q1013 RERA
15:20
V
18 °C 10 km+ 8.800 ft Var Var 3 kt METAR ESUP 191320Z AUTO VRB03KT 9999 // BKN088/// 18/18 Q1013
14:50
V
18 °C 9 km 7.800 ft 030° 030° 4 kt METAR ESUP 191250Z AUTO 03004KT 360V080 9000 -RA FEW021/// BKN078/// 18/18 Q1013
14:20
M
20 °C 10 km+ 2.300 ft 030° 030° 10 kt METAR ESUP 191220Z AUTO 03010KT 360V070 9999 BKN023/// OVC035/// 20/15 Q1013
13:50
M
22 °C 10 km+ 2.300 ft Var Var 3 kt METAR ESUP 191150Z AUTO VRB03KT 9999 BKN023/// 22/15 Q1013
13:20
V
21 °C 10 km+ 6.000 ft 050° 050° 4 kt METAR ESUP 191120Z AUTO 05004KT 020V090 9999 SCT024/// BKN060/// 21/15 Q1013
12:50
V
21 °C 10 km+ 6.200 ft 050° 050° 4 kt METAR ESUP 191050Z AUTO 05004KT 010V110 9999 FEW020/// SCT048/// BKN062/// 21/16 Q1013
12:20
V
20 °C 10 km+ - 040° 040° 5 kt METAR ESUP 191020Z AUTO 04005KT 350V090 9999 FEW017/// SCT030/// 20/16 Q1013
11:50
V
20 °C 10 km+ - 050° 050° 4 kt METAR ESUP 190950Z AUTO 05004KT 340V140 9999 // FEW015/// SCT037/// 20/17 Q1013
11:20
M
19 °C 10 km+ 1.700 ft 040° 040° 5 kt METAR ESUP 190920Z AUTO 04005KT 010V080 9999 SCT012/// BKN017/// OVC024/// 19/17 Q1013
10:50
M
20 °C 10 km+ 1.400 ft 050° 050° 3 kt METAR ESUP 190850Z AUTO 05003KT 360V100 9999 BKN014/// BKN032/// OVC046/// 20/17 Q1013
10:20
M
19 °C 10 km+ 1.300 ft 040° 040° 5 kt METAR ESUP 190820Z AUTO 04005KT 360V100 9999 SCT010/// BKN013/// BKN110/// 19/17 Q1013
09:50
V
18 °C 10 km+ 9.800 ft 020° 020° 4 kt METAR ESUP 190750Z AUTO 02004KT 330V070 9999 OVC098/// 18/18 Q1013 RERA
09:20
V
17 °C 10 km+ 9.100 ft 030° 030° 5 kt METAR ESUP 190720Z AUTO 03005KT 350V050 9999 // FEW015/// SCT035/// OVC091/// 17/17 Q1013
08:50
V
17 °C 10 km+ 8.100 ft 010° 010° 6 kt METAR ESUP 190650Z AUTO 01006KT 340V050 9999 -RA FEW022/// SCT057/// OVC081/// 17/17 Q1013
08:20
V
17 °C 10 km+ 3.600 ft 030° 030° 7 kt METAR ESUP 190620Z AUTO 03007KT 360V060 9999 SCT027/// BKN036/// BKN042/// 17/17 Q1013
07:50
V
17 °C 10 km+ 3.600 ft 040° 040° 5 kt METAR ESUP 190550Z AUTO 04005KT 360V070 9999 OVC036/// 17/17 Q1013 RERA
07:20
V
16 °C 10 km+ 3.500 ft Var Var 3 kt METAR ESUP 190520Z AUTO VRB03KT 9999 BKN035/// BKN053/// OVC079/// 16/16 Q1013
06:50
V
16 °C 10 km+ 4.100 ft Var Var 3 kt METAR ESUP 190450Z AUTO VRB03KT 9999 OVC041/// 16/16 Q1013
06:20
V
16 °C 10 km+ 8.100 ft Var Var 1 kt METAR ESUP 190420Z AUTO VRB01KT 9999 FEW046/// BKN081/// OVC100/// 16/16 Q1013
05:50
V
16 °C 10 km+ 7.700 ft Var Var 3 kt METAR ESUP 190350Z AUTO VRB03KT 9999 // FEW054/// OVC077/// 16/16 Q1013
05:20
V
16 °C 10 km+ 6.600 ft 020° 020° 3 kt METAR ESUP 190320Z AUTO 02003KT 340V060 9999 OVC066/// 16/16 Q1013 RERA
04:50
V
16 °C 10 km+ 8.500 ft 360° 360° 3 kt METAR ESUP 190250Z AUTO 36003KT 320V040 9999 FEW062/// OVC085/// 16/16 Q1013
04:20
V
16 °C 10 km+ 5.400 ft 030° 030° 4 kt METAR ESUP 190220Z AUTO 03004KT 360V060 9999 // BKN054/// BKN090/// 16/16 Q1013 REDZ
03:50
V
16 °C 10 km+ 7.700 ft 060° 060° 3 kt METAR ESUP 190150Z AUTO 06003KT 9999 FEW059/// BKN077/// BKN098/// 16/16 Q1013
03:20
V
16 °C 10 km+ 8.000 ft Var Var 3 kt METAR ESUP 190120Z AUTO VRB03KT 9999 // OVC080/// 16/16 Q1013 REUP
02:50
V
16 °C 10 km+ 8.600 ft 010° 010° 3 kt METAR ESUP 190050Z AUTO 01003KT 9999 OVC086/// 16/16 Q1013
02:20
V
16 °C 10 km+ 9.400 ft 010° 010° 3 kt METAR ESUP 190020Z AUTO 01003KT 9999 -DZ OVC094/// 16/16 Q1013 RERA
01:50
V
16 °C 9 km 9.600 ft 010° 010° 4 kt METAR ESUP 182350Z AUTO 01004KT 9000 BKN096/// 16/16 Q1013
01:20
V
16 °C 10 km+ - 360° 360° 0 kt METAR ESUP 182320Z AUTO 00000KT 9999 RA SCT085/// 16/16 Q1013
00:50
M
16 °C 6 km 8.500 ft 360° 360° 0 kt METAR ESUP 182250Z AUTO 00000KT 6000 -RA OVC085/// 16/16 Q1013
00:20
V
16 °C 10 km+ 7.700 ft Var Var 1 kt METAR ESUP 182220Z AUTO VRB01KT 9999 -RA BKN077/// 16/16 Q1013

18. Juli 2024

Uhrzeit Code Wetter Temp. Sichtweite Wolkendecke Wind METAR/SPECI
23:50
V
17 °C 10 km+ 7.800 ft Var Var 2 kt METAR ESUP 182150Z AUTO VRB02KT 9999 -RA FEW062/// OVC078/// 17/17 Q1013
23:20
V
18 °C 10 km+ 9.000 ft 060° 060° 2 kt METAR ESUP 182120Z AUTO 06002KT 9999 -RA FEW055/// OVC090/// 18/16 Q1013
22:50
V
19 °C 10 km+ 9.000 ft 070° 070° 4 kt METAR ESUP 182050Z AUTO 07004KT 050V110 9999 OVC090/// 19/15 Q1013 REUP
22:20
V
19 °C 10 km+ 8.900 ft 110° 110° 5 kt METAR ESUP 182020Z AUTO 11005KT 9999 SCT059/// OVC089/// 19/15 Q1013
21:50
V
20 °C 10 km+ 5.900 ft 170° 170° 5 kt METAR ESUP 181950Z AUTO 17005KT 9999 BKN059/// BKN084/// OVC100/// 20/14 Q1013
21:20
V
21 °C 10 km+ 6.600 ft Var Var 2 kt METAR ESUP 181920Z AUTO VRB02KT 9999 BKN066/// OVC098/// 21/15 Q1013
20:50
V
21 °C 10 km+ 9.800 ft 170° 170° 3 kt METAR ESUP 181850Z AUTO 17003KT 9999 OVC098/// 21/16 Q1013
20:20
V
22 °C 10 km+ 16.000 ft 050° 050° 2 kt METAR ESUP 181820Z AUTO 05002KT 9999 // FEW100/// BKN160/// 22/16 Q1012
19:50
V
22 °C 10 km+ - 360° 360° 0 kt METAR ESUP 181750Z AUTO 00000KT 9999 FEW110/// SCT210/// 22/14 Q1012
19:20
V
23 °C 10 km+ 12.000 ft Var Var 2 kt METAR ESUP 181720Z AUTO VRB02KT 9999 FEW110/// BKN120/// 23/14 Q1012
18:50
V
23 °C 10 km+ 11.000 ft 320° 320° 2 kt METAR ESUP 181650Z AUTO 32002KT 9999 OVC110/// 23/14 Q1012
18:20
V
23 °C 10 km+ 10.000 ft 360° 360° 0 kt METAR ESUP 181620Z AUTO 00000KT 9999 OVC100/// 23/14 Q1013 RERA
17:50
V
22 °C 10 km+ 10.000 ft 360° 360° 0 kt METAR ESUP 181550Z AUTO 00000KT 9999 // OVC100/// 22/15 Q1013 RERA
17:20
V
22 °C 10 km+ 9.100 ft 200° 200° 3 kt METAR ESUP 181520Z AUTO 20003KT 9999 BKN091/// 22/16 Q1013
16:50
V
22 °C 10 km+ 9.100 ft 150° 150° 5 kt METAR ESUP 181450Z AUTO 15005KT 100V190 9999 -RA FEW055/// BKN091/// BKN100/// 22/15 Q1013
16:20
V
23 °C 10 km+ 11.000 ft 070° 070° 2 kt METAR ESUP 181420Z AUTO 07002KT 9999 OVC110/// 23/12 Q1013
15:50
V
24 °C 10 km+ 8.800 ft Var Var 1 kt METAR ESUP 181350Z AUTO VRB01KT 9999 BKN088/// OVC130/// 24/11 Q1013
15:20
V
24 °C 10 km+ 14.000 ft Var Var 2 kt METAR ESUP 181320Z AUTO VRB02KT 9999 // BKN140/// 24/11 Q1013
14:50
V
24 °C 10 km+ - Var Var 3 kt METAR ESUP 181250Z AUTO VRB03KT 9999 ///////// 24/11 Q1013
14:20
V
24 °C 10 km+ - 080° 080° 3 kt METAR ESUP 181220Z AUTO 08003KT 030V130 9999 ///////// 24/10 Q1013
13:50
V
24 °C 10 km+ 21.000 ft 100° 100° 4 kt METAR ESUP 181150Z AUTO 10004KT 050V160 9999 SCT160/// BKN210/// 24/11 Q1013
13:20
V
23 °C 10 km+ 18.000 ft 100° 100° 4 kt METAR ESUP 181120Z AUTO 10004KT 050V160 9999 OVC180/// 23/12 Q1013
12:50
V
23 °C 10 km+ 18.000 ft 110° 110° 5 kt METAR ESUP 181050Z AUTO 11005KT 060V140 9999 // OVC180/// 23/12 Q1013
12:20
V
23 °C 10 km+ 19.000 ft 100° 100° 7 kt METAR ESUP 181020Z AUTO 10007KT 070V130 9999 BKN190/// 23/12 Q1014
11:50
V
23 °C 10 km+ 18.000 ft 090° 090° 6 kt METAR ESUP 180950Z AUTO 09006KT 030V140 9999 FEW052/// BKN180/// 23/12 Q1014
11:20
V
23 °C 10 km+ 17.000 ft 100° 100° 5 kt METAR ESUP 180920Z AUTO 10005KT 020V160 9999 FEW054/// BKN170/// 23/12 Q1014
10:50
V
23 °C 10 km+ 18.000 ft 070° 070° 4 kt METAR ESUP 180850Z AUTO 07004KT 010V120 9999 BKN180/// 23/12 Q1014
10:20
V
23 °C 10 km+ - Var Var 4 kt METAR ESUP 180820Z AUTO VRB04KT 9999 // FEW056/// 23/12 Q1014
09:50
V
24 °C 10 km+ 21.000 ft 100° 100° 6 kt METAR ESUP 180750Z AUTO 10006KT 070V140 9999 BKN210/// 24/13 Q1014
09:20
V
23 °C 10 km+ - 090° 090° 5 kt METAR ESUP 180720Z AUTO 09005KT 030V150 9999 // SCT170/// 23/12 Q1014
08:50
V
22 °C 10 km+ 17.000 ft 100° 100° 6 kt METAR ESUP 180650Z AUTO 10006KT 060V130 9999 BKN170/// 22/13 Q1014
08:20
V
22 °C 10 km+ - 060° 060° 4 kt METAR ESUP 180620Z AUTO 06004KT 360V120 9999 FEW160/// 22/13 Q1014
07:50
V
21 °C 10 km+ - 060° 060° 3 kt METAR ESUP 180550Z AUTO 06003KT 360V100 9999 FEW160/// 21/14 Q1014
Eine Änderung melden